KCNM

Cavern City Air Trml Airport

Carlsbad, New Mexico, USA
METAR KCNM 230753Z AUTO 14007KT 10SM CLR 21/16 A2993 RMK AO2 SLP078 T02110156
Observed Flight Rules
May-23 @ 07:53 UTC (53 minutes ago) Visual Flight Rules
Wind Visibility Clouds
140° at 7 knots 10 miles
  • Clear skies
Temperatures Readings
Current 21°C / 70°F
Dewpoint 16°C / 61°F
Humidity 73%
Altimeter 29.93" Hg
Pressure 1007.8 hPa
Elevation 985
METAR KCNM 230753Z AUTO 14007KT 10SM CLR 21/16 A2993 RMK AO2 SLP078 T02110156
Observed Flight Rules
May-23 @ 07:53 UTC
(53 minutes ago)
VFR
Wind Visibility
140° at 7 knots 10 miles
Clouds
  • Clear skies
Temperature Dewpoint
21°C / 70°F 16°C / 61°F
Humidity Altimeter Pressure
73% 29.93" Hg 1007.8 hPa